Terminal Aerodrome Forecast
Issued by NWS

Home | Current Version | Previous Version | Text Only | Print | Product List | Glossary On
Versions: 1 2 3 4 5 6 7 8 9 10 11 12 13 14 15 16
036
FTUS45 KRIW 252325
TAFCOD
TAF
KCOD 252325Z 2600/2624 05010KT P6SM -SHRA VCTS SCT035CB BKN045
     FM260400 VRB06KT P6SM VCSH FEW005 BKN045
     FM261500 VRB05KT P6SM BKN060
     FM261800 05008KT P6SM VCTS SCT030CB BKN040
      AMD LTD TO CLD VIS AND WIND=

USA.gov is the U.S. government's official web portal to all federal, state and local government web resources and services.